createdAt,value
2023-05-01T00:03:00.443Z,100611.03
2023-05-01T00:06:08.120Z,100612.47
2023-05-01T00:09:11.258Z,100617.50
2023-05-01T00:12:14.738Z,100610.13
2023-05-01T00:15:17.531Z,100621.62
2023-05-01T00:18:20.575Z,100600.25
2023-05-01T00:21:23.301Z,100613.34
2023-05-01T00:24:26.453Z,100610.41
2023-05-01T00:27:29.225Z,100605.94
2023-05-01T00:30:33.936Z,100609.09
2023-05-01T00:33:36.863Z,100608.56
2023-05-01T00:36:40.114Z,100610.53
2023-05-01T00:39:42.898Z,100611.72
2023-05-01T00:42:46.038Z,100609.97
2023-05-01T00:45:48.880Z,100613.84
2023-05-01T00:48:52.774Z,100613.75
2023-05-01T00:51:55.746Z,100602.69
2023-05-01T00:54:59.327Z,100610.59
2023-05-01T00:58:02.415Z,100609.75
2023-05-01T01:01:05.669Z,100606.16
2023-05-01T01:04:08.654Z,100603.66
2023-05-01T01:07:16.166Z,100609.81
2023-05-01T01:10:37.150Z,100615.00
2023-05-01T01:14:00.819Z,100615.16
2023-05-01T01:17:13.295Z,100613.72
2023-05-01T01:20:16.271Z,100614.66
2023-05-01T01:23:57.248Z,100614.84
2023-05-01T01:27:28.033Z,100617.53
2023-05-01T01:30:59.311Z,100609.78
2023-05-01T01:34:19.497Z,100612.41
2023-05-01T01:37:33.041Z,100612.56
2023-05-01T01:40:39.780Z,100617.75
2023-05-01T01:43:51.088Z,100621.00
2023-05-01T01:46:54.871Z,100616.81
2023-05-01T01:50:04.499Z,100611.66
2023-05-01T01:53:11.854Z,100618.50
2023-05-01T01:56:17.692Z,100607.38
2023-05-01T01:59:23.336Z,100614.69
2023-05-01T02:02:29.613Z,100612.16
2023-05-01T02:05:34.510Z,100615.81
2023-05-01T02:08:38.480Z,100612.25
2023-05-01T02:11:42.367Z,100621.28
2023-05-01T02:14:46.791Z,100615.47
2023-05-01T02:17:52.209Z,100609.69
2023-05-01T02:20:58.765Z,100611.13
2023-05-01T02:24:02.507Z,100611.22
2023-05-01T02:27:11.481Z,100599.06
2023-05-01T02:30:14.612Z,100604.94
2023-05-01T02:33:17.694Z,100617.84
2023-05-01T02:36:20.644Z,100615.47
2023-05-01T02:39:23.875Z,100591.41
2023-05-01T02:42:28.843Z,100611.28
2023-05-01T02:45:35.802Z,100610.53
2023-05-01T02:48:39.254Z,100615.19
2023-05-01T02:51:43.641Z,100614.19
2023-05-01T02:54:47.250Z,100617.44
2023-05-01T02:57:53.171Z,100618.94
2023-05-01T03:00:55.985Z,100627.00
2023-05-01T03:03:59.979Z,100619.50
2023-05-01T03:07:02.615Z,100624.25
2023-05-01T03:10:07.959Z,100624.78
2023-05-01T03:13:11.828Z,100633.00
2023-05-01T03:16:14.842Z,100624.88
2023-05-01T03:19:17.638Z,100623.50
2023-05-01T03:22:20.681Z,100613.47
2023-05-01T03:25:23.669Z,100637.00
2023-05-01T03:28:27.444Z,100621.31
2023-05-01T03:31:30.509Z,100627.56
2023-05-01T03:34:34.351Z,100631.62
2023-05-01T03:37:37.124Z,100626.78
2023-05-01T03:40:40.351Z,100634.78
2023-05-01T03:43:46.060Z,100636.41
2023-05-01T03:46:49.795Z,100642.78
2023-05-01T03:49:53.019Z,100640.84
2023-05-01T03:52:56.672Z,100631.06
2023-05-01T03:55:59.280Z,100627.63
2023-05-01T03:59:03.077Z,100632.41
2023-05-01T04:02:05.872Z,100624.97
2023-05-01T04:05:09.518Z,100629.09
2023-05-01T04:08:12.530Z,100632.28
2023-05-01T04:11:16.658Z,100630.69
2023-05-01T04:14:19.343Z,100627.84
2023-05-01T04:17:22.328Z,100624.66
2023-05-01T04:20:25.014Z,100633.44
2023-05-01T04:23:28.071Z,100625.69
2023-05-01T04:26:32.907Z,100617.47
2023-05-01T04:29:36.957Z,100637.31
2023-05-01T04:32:40.096Z,100641.56
2023-05-01T04:35:43.814Z,100642.91
2023-05-01T04:38:46.590Z,100632.34
2023-05-01T04:41:50.080Z,100646.31
2023-05-01T04:44:53.010Z,100637.88
2023-05-01T04:47:56.388Z,100646.63
2023-05-01T04:50:59.203Z,100646.84
2023-05-01T04:54:04.803Z,100651.13
2023-05-01T04:57:07.648Z,100655.06
2023-05-01T05:00:11.399Z,100657.22
2023-05-01T05:03:19.097Z,100661.59
2023-05-01T05:06:22.837Z,100656.34
2023-05-01T05:09:25.894Z,100653.19
2023-05-01T05:12:29.466Z,100669.12
2023-05-01T05:15:32.525Z,100659.12
2023-05-01T05:18:35.795Z,100659.88
2023-05-01T05:21:38.940Z,100658.75
2023-05-01T05:24:41.908Z,100655.06
2023-05-01T05:27:44.591Z,100652.88
2023-05-01T05:30:47.778Z,100650.03
2023-05-01T05:33:50.819Z,100659.50
2023-05-01T05:36:54.288Z,100664.03
2023-05-01T05:39:58.005Z,100656.12
2023-05-01T05:43:01.319Z,100667.66
2023-05-01T05:46:04.397Z,100691.06
2023-05-01T05:49:07.909Z,100682.03
2023-05-01T05:52:11.127Z,100677.13
2023-05-01T05:55:14.882Z,100686.62
2023-05-01T05:58:20.256Z,100686.25
2023-05-01T06:01:23.908Z,100679.94
2023-05-01T06:04:27.011Z,100686.00
2023-05-01T06:07:30.631Z,100678.56
2023-05-01T06:10:33.654Z,100692.38
2023-05-01T06:13:37.073Z,100696.62
2023-05-01T06:16:40.146Z,100690.56
2023-05-01T06:19:42.917Z,100699.84
2023-05-01T06:22:46.954Z,100699.66
2023-05-01T06:25:50.089Z,100692.75
2023-05-01T06:28:53.198Z,100693.97
2023-05-01T06:31:56.188Z,100691.59
2023-05-01T06:34:59.332Z,100696.28
2023-05-01T06:38:03.064Z,100699.34
2023-05-01T06:41:06.322Z,100695.88
2023-05-01T06:44:09.100Z,100693.97
2023-05-01T06:47:14.164Z,100711.97
2023-05-01T06:50:17.059Z,100707.44
2023-05-01T06:53:20.127Z,100710.28
2023-05-01T06:56:22.989Z,100706.38
2023-05-01T06:59:25.934Z,100714.03
2023-05-01T07:02:28.571Z,100703.00
2023-05-01T07:05:37.346Z,100700.28
2023-05-01T07:08:40.225Z,100711.00
2023-05-01T07:11:43.353Z,100707.00
2023-05-01T07:14:46.301Z,100710.97
2023-05-01T07:17:50.886Z,100708.66
2023-05-01T07:20:53.624Z,100707.91
2023-05-01T07:23:56.592Z,100703.59
2023-05-01T07:27:00.207Z,100715.37
2023-05-01T07:30:05.295Z,100723.72
2023-05-01T07:33:08.234Z,100718.19
2023-05-01T07:36:11.960Z,100710.69
2023-05-01T07:39:14.991Z,100718.16
2023-05-01T07:42:18.026Z,100696.09
2023-05-01T07:45:20.742Z,100723.72
2023-05-01T07:48:24.198Z,100717.78
2023-05-01T07:51:27.038Z,100717.41
2023-05-01T07:54:30.453Z,100722.13
2023-05-01T07:57:36.056Z,100727.22
2023-05-01T08:00:39.204Z,100715.75
2023-05-01T08:03:42.410Z,100724.03
2023-05-01T08:06:45.937Z,100715.34
2023-05-01T08:09:49.113Z,100719.25
2023-05-01T08:12:51.921Z,100723.12
2023-05-01T08:15:55.196Z,100713.28
2023-05-01T08:18:58.434Z,100713.66
2023-05-01T08:22:01.446Z,100699.81
2023-05-01T08:25:06.048Z,100714.25
2023-05-01T08:28:09.854Z,100716.25
2023-05-01T08:31:12.718Z,100718.25
2023-05-01T08:34:17.346Z,100714.59
2023-05-01T08:37:20.169Z,100715.88
2023-05-01T08:40:24.040Z,100713.97
2023-05-01T08:43:28.110Z,100704.44
2023-05-01T08:46:45.066Z,100703.25
2023-05-01T08:49:51.286Z,100702.63
2023-05-01T08:52:56.553Z,100706.81
2023-05-01T08:56:01.502Z,100709.75
2023-05-01T08:59:10.912Z,100713.12
2023-05-01T09:02:15.649Z,100705.37
2023-05-01T09:05:20.180Z,100706.66
2023-05-01T09:08:23.345Z,100706.09
2023-05-01T09:11:26.637Z,100709.56
2023-05-01T09:14:31.647Z,100701.84
2023-05-01T09:17:37.015Z,100706.56
2023-05-01T09:20:40.628Z,100694.59
2023-05-01T09:23:43.710Z,100695.31
2023-05-01T09:26:47.118Z,100694.13
2023-05-01T09:29:50.192Z,100693.03
2023-05-01T09:33:09.492Z,100685.13
2023-05-01T09:36:17.724Z,100697.75
2023-05-01T09:39:24.167Z,100689.22
2023-05-01T09:42:27.317Z,100682.91
2023-05-01T09:45:30.030Z,100673.28
2023-05-01T09:48:35.748Z,100679.62
2023-05-01T09:51:39.659Z,100679.78
2023-05-01T09:54:43.492Z,100674.16
2023-05-01T09:57:47.531Z,100669.50
2023-05-01T10:00:50.921Z,100671.22
2023-05-01T10:03:56.099Z,100676.41
2023-05-01T10:07:12.233Z,100662.06
2023-05-01T10:10:17.117Z,100673.28
2023-05-01T10:13:19.811Z,100666.38
2023-05-01T10:16:31.943Z,100661.00
2023-05-01T10:19:34.739Z,100656.38
2023-05-01T10:22:38.763Z,100661.63
2023-05-01T10:25:42.361Z,100661.28
2023-05-01T10:28:48.572Z,100668.22
2023-05-01T10:31:51.483Z,100660.47
2023-05-01T10:35:02.114Z,100648.47
2023-05-01T10:38:07.894Z,100657.09
2023-05-01T10:41:11.552Z,100650.34
2023-05-01T10:44:22.165Z,100659.59
2023-05-01T10:47:25.528Z,100654.56
2023-05-01T10:50:28.980Z,100661.47
2023-05-01T10:53:32.062Z,100649.78
2023-05-01T10:56:34.752Z,100647.19
2023-05-01T10:59:59.984Z,100646.47
2023-05-01T11:03:31.735Z,100637.56
2023-05-01T11:06:36.139Z,100636.38
2023-05-01T11:09:49.070Z,100631.44
2023-05-01T11:12:52.781Z,100621.72
2023-05-01T11:15:55.604Z,100626.78
2023-05-01T11:18:58.511Z,100624.25
2023-05-01T11:22:01.757Z,100621.06
2023-05-01T11:25:18.538Z,100624.34
2023-05-01T11:28:21.719Z,100611.91
2023-05-01T11:31:26.727Z,100601.03
2023-05-01T11:34:36.247Z,100600.22
2023-05-01T11:37:44.360Z,100586.19
2023-05-01T11:40:55.602Z,100605.19
2023-05-01T11:43:59.340Z,100587.88
2023-05-01T11:47:02.321Z,100593.13
2023-05-01T11:50:07.681Z,100595.34
2023-05-01T11:53:13.107Z,100595.50
2023-05-01T11:56:26.506Z,100584.31
2023-05-01T11:59:30.682Z,100599.47
2023-05-01T12:02:33.890Z,100586.09
2023-05-01T12:05:38.723Z,100584.91
2023-05-01T12:08:48.691Z,100578.56
2023-05-01T12:11:53.365Z,100587.09
2023-05-01T12:14:56.571Z,100573.66
2023-05-01T12:17:59.913Z,100588.88
2023-05-01T12:21:03.353Z,100580.91
2023-05-01T12:24:09.716Z,100577.00
2023-05-01T12:27:12.464Z,100555.13
2023-05-01T12:30:25.104Z,100559.69
2023-05-01T12:33:27.813Z,100551.03
2023-05-01T12:36:33.784Z,100552.34
2023-05-01T12:39:39.004Z,100550.69
2023-05-01T12:42:42.671Z,100555.66
2023-05-01T12:45:45.679Z,100549.63
2023-05-01T12:48:49.314Z,100538.03
2023-05-01T12:51:54.516Z,100541.81
2023-05-01T12:55:05.518Z,100544.50
2023-05-01T12:58:08.548Z,100546.94
2023-05-01T13:01:11.764Z,100538.41
2023-05-01T13:04:21.710Z,100527.94
2023-05-01T13:07:24.886Z,100528.31
2023-05-01T13:10:34.337Z,100526.25
2023-05-01T13:13:37.707Z,100521.16
2023-05-01T13:16:47.103Z,100521.94
2023-05-01T13:19:55.925Z,100518.69
2023-05-01T13:22:58.880Z,100514.53
2023-05-01T13:26:02.197Z,100517.53
2023-05-01T13:29:05.864Z,100507.91
2023-05-01T13:32:11.488Z,100499.16
2023-05-01T13:35:22.753Z,100497.81
2023-05-01T13:38:25.921Z,100488.09
2023-05-01T13:41:30.067Z,100491.03
2023-05-01T13:44:33.141Z,100490.91
2023-05-01T13:47:40.220Z,100481.84
2023-05-01T13:50:43.507Z,100466.50
2023-05-01T13:53:46.509Z,100479.69
2023-05-01T13:56:49.647Z,100486.41
2023-05-01T13:59:53.261Z,100478.88
2023-05-01T14:02:56.699Z,100470.03
2023-05-01T14:05:59.904Z,100472.97
2023-05-01T14:09:04.132Z,100455.00
2023-05-01T14:12:07.135Z,100466.47
2023-05-01T14:15:12.131Z,100471.47
2023-05-01T14:18:17.876Z,100465.03
2023-05-01T14:21:21.514Z,100441.19
2023-05-01T14:24:24.709Z,100456.97
2023-05-01T14:27:27.887Z,100448.22
2023-05-01T14:30:37.649Z,100455.47
2023-05-01T14:33:42.850Z,100446.31
2023-05-01T14:36:45.855Z,100427.09
2023-05-01T14:39:48.550Z,100442.19
2023-05-01T14:42:51.627Z,100435.44
2023-05-01T14:45:55.429Z,100436.06
2023-05-01T14:48:59.892Z,100439.12
2023-05-01T14:52:02.552Z,100435.53
2023-05-01T14:55:06.600Z,100432.69
2023-05-01T14:58:09.379Z,100427.44
2023-05-01T15:01:13.939Z,100426.91
2023-05-01T15:04:17.437Z,100423.34
2023-05-01T15:07:20.429Z,100422.41
2023-05-01T15:10:24.065Z,100423.44
2023-05-01T15:13:27.275Z,100414.47
2023-05-01T15:16:31.748Z,100422.75
2023-05-01T15:19:34.910Z,100421.81
2023-05-01T15:22:39.580Z,100416.16
2023-05-01T15:25:44.529Z,100423.72
2023-05-01T15:28:47.248Z,100417.59
2023-05-01T15:31:58.297Z,100416.47
2023-05-01T15:35:07.870Z,100423.31
2023-05-01T15:38:10.828Z,100418.81
2023-05-01T15:41:13.569Z,100415.06
2023-05-01T15:44:16.980Z,100406.87
2023-05-01T15:47:19.568Z,100412.03
2023-05-01T15:50:23.937Z,100414.22
2023-05-01T15:53:26.662Z,100408.62
2023-05-01T15:56:29.947Z,100406.56
2023-05-01T15:59:32.727Z,100412.53
2023-05-01T16:02:36.342Z,100405.50
2023-05-01T16:05:39.461Z,100407.94
2023-05-01T16:08:42.723Z,100412.75
2023-05-01T16:11:45.785Z,100409.59
2023-05-01T16:14:48.990Z,100402.09
2023-05-01T16:17:52.223Z,100394.91
2023-05-01T16:20:56.787Z,100399.75
2023-05-01T16:24:01.832Z,100404.22
2023-05-01T16:27:04.611Z,100403.25
2023-05-01T16:30:09.227Z,100408.72
2023-05-01T16:33:18.569Z,100402.22
2023-05-01T16:36:22.345Z,100400.09
2023-05-01T16:39:25.403Z,100399.97
2023-05-01T16:42:28.511Z,100400.16
2023-05-01T16:45:34.042Z,100407.50
2023-05-01T16:48:37.228Z,100405.91
2023-05-01T16:51:42.505Z,100382.34
2023-05-01T16:54:45.494Z,100406.56
2023-05-01T16:57:48.419Z,100402.31
2023-05-01T17:00:51.542Z,100403.28
2023-05-01T17:03:54.601Z,100399.00
2023-05-01T17:06:58.073Z,100397.66
2023-05-01T17:10:01.084Z,100399.91
2023-05-01T17:13:06.091Z,100393.91
2023-05-01T17:16:08.960Z,100407.00
2023-05-01T17:19:12.102Z,100400.91
2023-05-01T17:22:14.874Z,100397.16
2023-05-01T17:25:18.188Z,100397.50
2023-05-01T17:28:41.816Z,100400.31
2023-05-01T17:31:48.460Z,100390.22
2023-05-01T17:34:51.958Z,100397.75
2023-05-01T17:37:55.634Z,100394.16
2023-05-01T17:40:58.924Z,100392.97
2023-05-01T17:44:02.323Z,100396.06
2023-05-01T17:47:05.249Z,100395.16
2023-05-01T17:50:13.771Z,100392.69
2023-05-01T17:53:17.059Z,100388.03
2023-05-01T17:56:20.572Z,100392.63
2023-05-01T17:59:24.067Z,100389.72
2023-05-01T18:02:27.445Z,100395.88
2023-05-01T18:05:31.873Z,100387.44
2023-05-01T18:08:35.865Z,100386.00
2023-05-01T18:11:39.400Z,100383.09
2023-05-01T18:14:42.651Z,100379.22
2023-05-01T18:17:46.534Z,100387.34
2023-05-01T18:20:49.430Z,100385.91
2023-05-01T18:23:52.893Z,100390.44
2023-05-01T18:26:55.982Z,100383.97
2023-05-01T18:30:00.649Z,100395.97
2023-05-01T18:33:05.357Z,100389.34
2023-05-01T18:36:10.908Z,100400.19
2023-05-01T18:39:13.902Z,100394.38
2023-05-01T18:42:17.545Z,100398.34
2023-05-01T18:45:21.126Z,100400.25
2023-05-01T18:48:24.841Z,100390.50
2023-05-01T18:51:28.945Z,100407.47
2023-05-01T18:54:33.058Z,100411.03
2023-05-01T18:57:36.644Z,100409.06
2023-05-01T19:00:40.676Z,100418.16
2023-05-01T19:03:44.975Z,100410.78
2023-05-01T19:06:48.670Z,100413.63
2023-05-01T19:09:53.144Z,100419.97
2023-05-01T19:12:57.347Z,100416.03
2023-05-01T19:16:01.491Z,100417.69
2023-05-01T19:19:05.486Z,100420.47
2023-05-01T19:22:10.086Z,100425.66
2023-05-01T19:25:14.777Z,100424.13
2023-05-01T19:28:17.686Z,100413.56
2023-05-01T19:31:20.692Z,100425.06
2023-05-01T19:34:24.233Z,100412.06
2023-05-01T19:37:28.644Z,100430.63
2023-05-01T19:40:33.729Z,100437.25
2023-05-01T19:43:38.923Z,100431.38
2023-05-01T19:46:42.490Z,100433.78
2023-05-01T19:49:46.590Z,100429.44
2023-05-01T19:52:50.113Z,100425.16
2023-05-01T19:55:54.403Z,100431.06
2023-05-01T19:58:57.740Z,100429.50
2023-05-01T20:02:01.550Z,100430.72
2023-05-01T20:05:05.324Z,100435.84
2023-05-01T20:08:08.502Z,100431.13
2023-05-01T20:11:11.561Z,100437.44
2023-05-01T20:14:14.808Z,100431.94
2023-05-01T20:17:18.462Z,100429.97
2023-05-01T20:20:22.788Z,100433.53
2023-05-01T20:23:25.802Z,100426.44
2023-05-01T20:26:29.132Z,100422.50
2023-05-01T20:29:32.482Z,100428.81
2023-05-01T20:32:35.183Z,100437.84
2023-05-01T20:35:39.527Z,100442.19
2023-05-01T20:38:47.626Z,100444.53
2023-05-01T20:41:51.075Z,100449.66
2023-05-01T20:44:53.742Z,100432.69
2023-05-01T20:47:57.732Z,100452.75
2023-05-01T20:51:00.804Z,100457.87
2023-05-01T20:54:03.966Z,100455.13
2023-05-01T20:57:06.795Z,100450.78
2023-05-01T21:00:10.773Z,100447.66
2023-05-01T21:03:15.285Z,100444.47
2023-05-01T21:06:18.556Z,100446.06
2023-05-01T21:09:21.436Z,100455.94
2023-05-01T21:12:24.467Z,100458.66
2023-05-01T21:15:27.690Z,100444.47
2023-05-01T21:18:33.560Z,100460.25
2023-05-01T21:21:36.999Z,100461.47
2023-05-01T21:24:42.498Z,100457.44
2023-05-01T21:27:45.796Z,100459.44
2023-05-01T21:30:49.541Z,100460.22
2023-05-01T21:33:53.475Z,100457.44
2023-05-01T21:36:56.640Z,100458.63
2023-05-01T21:40:01.155Z,100467.25
2023-05-01T21:43:05.986Z,100456.22
2023-05-01T21:46:15.324Z,100472.31
2023-05-01T21:49:23.123Z,100466.81
2023-05-01T21:52:29.135Z,100472.72
2023-05-01T21:55:32.904Z,100476.22
2023-05-01T21:58:36.112Z,100473.81
2023-05-01T22:01:41.211Z,100478.97
2023-05-01T22:04:44.333Z,100477.75
2023-05-01T22:07:47.466Z,100473.78
2023-05-01T22:10:50.468Z,100475.69
2023-05-01T22:13:53.108Z,100473.28
2023-05-01T22:16:56.227Z,100468.97
2023-05-01T22:19:59.260Z,100464.59
2023-05-01T22:23:02.376Z,100468.91
2023-05-01T22:26:05.036Z,100461.50
2023-05-01T22:29:08.523Z,100464.25
2023-05-01T22:32:11.488Z,100465.84
2023-05-01T22:35:14.692Z,100462.34
2023-05-01T22:38:17.331Z,100471.37
2023-05-01T22:41:20.581Z,100471.44
2023-05-01T22:44:23.307Z,100466.28
2023-05-01T22:47:26.293Z,100466.34
2023-05-01T22:50:29.232Z,100462.41
2023-05-01T22:53:33.389Z,100456.53
2023-05-01T22:56:36.501Z,100471.84
2023-05-01T22:59:40.657Z,100465.53
2023-05-01T23:02:43.584Z,100456.47
2023-05-01T23:05:46.706Z,100458.44
2023-05-01T23:08:53.909Z,100454.50
2023-05-01T23:11:56.994Z,100457.66
2023-05-01T23:14:59.996Z,100449.75
2023-05-01T23:18:03.536Z,100450.53
2023-05-01T23:21:06.720Z,100449.69
2023-05-01T23:24:12.686Z,100448.09
2023-05-01T23:27:19.745Z,100446.13
2023-05-01T23:30:32.938Z,100444.13
2023-05-01T23:33:38.698Z,100434.28
2023-05-01T23:36:45.199Z,100437.06
2023-05-01T23:39:48.555Z,100440.59
2023-05-01T23:42:51.597Z,100442.16
2023-05-01T23:45:54.241Z,100433.50
2023-05-01T23:48:57.480Z,100434.69
2023-05-01T23:52:00.149Z,100430.75
2023-05-01T23:55:03.212Z,100434.69
2023-05-01T23:58:06.820Z,100439.44
